sensor_id;sensor_type;location;lat;lon;timestamp;temperature;humidity
21445;DHT22;10883;51.946;20.140;2023-02-01T00:00:20;3.80;99.90
21445;DHT22;10883;51.946;20.140;2023-02-01T00:02:46;3.90;99.90
21445;DHT22;10883;51.946;20.140;2023-02-01T00:05:12;3.90;99.90
21445;DHT22;10883;51.946;20.140;2023-02-01T00:07:38;3.80;99.90
21445;DHT22;10883;51.946;20.140;2023-02-01T00:10:05;3.90;99.90
21445;DHT22;10883;51.946;20.140;2023-02-01T00:12:31;3.90;99.90
21445;DHT22;10883;51.946;20.140;2023-02-01T00:14:57;3.80;99.90
21445;DHT22;10883;51.946;20.140;2023-02-01T00:17:23;3.80;99.90
21445;DHT22;10883;51.946;20.140;2023-02-01T00:19:49;3.80;99.90
21445;DHT22;10883;51.946;20.140;2023-02-01T00:22:15;3.80;99.90
21445;DHT22;10883;51.946;20.140;2023-02-01T00:24:41;3.80;99.90
21445;DHT22;10883;51.946;20.140;2023-02-01T00:27:06;3.80;99.90
21445;DHT22;10883;51.946;20.140;2023-02-01T00:29:32;3.80;99.90
21445;DHT22;10883;51.946;20.140;2023-02-01T00:31:58;3.80;99.90
21445;DHT22;10883;51.946;20.140;2023-02-01T00:34:24;3.90;99.90
21445;DHT22;10883;51.946;20.140;2023-02-01T00:36:50;3.90;99.90
21445;DHT22;10883;51.946;20.140;2023-02-01T00:39:16;3.90;99.90
21445;DHT22;10883;51.946;20.140;2023-02-01T00:41:42;3.80;99.90
21445;DHT22;10883;51.946;20.140;2023-02-01T00:44:08;3.90;99.90
21445;DHT22;10883;51.946;20.140;2023-02-01T00:46:34;3.80;99.90
21445;DHT22;10883;51.946;20.140;2023-02-01T00:48:59;3.80;99.90
21445;DHT22;10883;51.946;20.140;2023-02-01T00:51:29;3.80;99.90
21445;DHT22;10883;51.946;20.140;2023-02-01T00:53:55;3.80;99.90
21445;DHT22;10883;51.946;20.140;2023-02-01T00:56:20;3.80;99.90
21445;DHT22;10883;51.946;20.140;2023-02-01T00:58:46;3.80;99.90
21445;DHT22;10883;51.946;20.140;2023-02-01T01:01:16;3.80;99.90
21445;DHT22;10883;51.946;20.140;2023-02-01T01:03:45;3.80;99.90
21445;DHT22;10883;51.946;20.140;2023-02-01T01:06:15;3.80;99.90
21445;DHT22;10883;51.946;20.140;2023-02-01T01:08:42;3.80;99.90
21445;DHT22;10883;51.946;20.140;2023-02-01T01:11:13;3.70;99.90
21445;DHT22;10883;51.946;20.140;2023-02-01T01:13:40;3.70;99.90
21445;DHT22;10883;51.946;20.140;2023-02-01T01:16:07;3.70;99.90
21445;DHT22;10883;51.946;20.140;2023-02-01T01:18:34;3.70;99.90
21445;DHT22;10883;51.946;20.140;2023-02-01T01:21:00;3.70;99.90
21445;DHT22;10883;51.946;20.140;2023-02-01T01:23:26;3.70;99.90
21445;DHT22;10883;51.946;20.140;2023-02-01T01:25:52;3.60;99.90
21445;DHT22;10883;51.946;20.140;2023-02-01T01:28:18;3.60;99.90
21445;DHT22;10883;51.946;20.140;2023-02-01T01:30:44;3.60;99.90
21445;DHT22;10883;51.946;20.140;2023-02-01T01:33:10;3.60;99.90
21445;DHT22;10883;51.946;20.140;2023-02-01T01:35:36;3.60;99.90
21445;DHT22;10883;51.946;20.140;2023-02-01T01:38:02;3.60;99.90
21445;DHT22;10883;51.946;20.140;2023-02-01T01:40:29;3.50;99.90
21445;DHT22;10883;51.946;20.140;2023-02-01T01:42:55;3.50;99.90
21445;DHT22;10883;51.946;20.140;2023-02-01T01:45:31;3.50;99.90
21445;DHT22;10883;51.946;20.140;2023-02-01T01:48:09;3.50;99.90
21445;DHT22;10883;51.946;20.140;2023-02-01T01:50:45;3.50;99.90
21445;DHT22;10883;51.946;20.140;2023-02-01T01:53:18;3.40;99.90
21445;DHT22;10883;51.946;20.140;2023-02-01T01:55:46;3.30;99.90
21445;DHT22;10883;51.946;20.140;2023-02-01T01:58:17;3.40;99.90
21445;DHT22;10883;51.946;20.140;2023-02-01T02:00:44;3.40;99.90
21445;DHT22;10883;51.946;20.140;2023-02-01T02:03:32;3.40;99.90
21445;DHT22;10883;51.946;20.140;2023-02-01T02:06:02;3.50;99.90
21445;DHT22;10883;51.946;20.140;2023-02-01T02:08:29;3.50;99.90
21445;DHT22;10883;51.946;20.140;2023-02-01T02:10:55;3.60;99.90
21445;DHT22;10883;51.946;20.140;2023-02-01T02:13:39;3.60;99.90
21445;DHT22;10883;51.946;20.140;2023-02-01T02:27:13;3.40;99.90
21445;DHT22;10883;51.946;20.140;2023-02-01T02:41:15;3.30;99.90
21445;DHT22;10883;51.946;20.140;2023-02-01T02:44:18;3.40;99.90
21445;DHT22;10883;51.946;20.140;2023-02-01T02:47:12;3.50;99.90
21445;DHT22;10883;51.946;20.140;2023-02-01T02:50:17;3.60;99.90
21445;DHT22;10883;51.946;20.140;2023-02-01T02:55:52;3.60;99.90
21445;DHT22;10883;51.946;20.140;2023-02-01T02:58:37;3.60;99.90
21445;DHT22;10883;51.946;20.140;2023-02-01T03:01:21;3.60;99.90
21445;DHT22;10883;51.946;20.140;2023-02-01T03:04:05;3.70;99.90
21445;DHT22;10883;51.946;20.140;2023-02-01T03:06:34;3.70;99.90
21445;DHT22;10883;51.946;20.140;2023-02-01T03:09:04;3.70;99.90
21445;DHT22;10883;51.946;20.140;2023-02-01T03:11:31;3.70;99.90
21445;DHT22;10883;51.946;20.140;2023-02-01T03:14:22;3.60;99.90
21445;DHT22;10883;51.946;20.140;2023-02-01T03:16:55;3.60;99.90
21445;DHT22;10883;51.946;20.140;2023-02-01T03:19:32;3.50;99.90
21445;DHT22;10883;51.946;20.140;2023-02-01T03:22:08;3.40;99.90
21445;DHT22;10883;51.946;20.140;2023-02-01T03:24:44;3.50;99.90
21445;DHT22;10883;51.946;20.140;2023-02-01T03:27:16;3.40;99.90
21445;DHT22;10883;51.946;20.140;2023-02-01T03:32:24;3.30;99.90
21445;DHT22;10883;51.946;20.140;2023-02-01T03:34:51;3.30;99.90
21445;DHT22;10883;51.946;20.140;2023-02-01T03:37:27;3.30;99.90
21445;DHT22;10883;51.946;20.140;2023-02-01T03:39:59;3.30;99.90
21445;DHT22;10883;51.946;20.140;2023-02-01T03:42:37;3.40;99.90
21445;DHT22;10883;51.946;20.140;2023-02-01T03:45:24;3.50;99.90
21445;DHT22;10883;51.946;20.140;2023-02-01T03:47:55;3.60;99.90
21445;DHT22;10883;51.946;20.140;2023-02-01T03:50:23;3.70;99.90
21445;DHT22;10883;51.946;20.140;2023-02-01T03:52:58;3.70;99.90
21445;DHT22;10883;51.946;20.140;2023-02-01T03:55:25;3.70;99.90
21445;DHT22;10883;51.946;20.140;2023-02-01T03:58:09;3.80;99.90
21445;DHT22;10883;51.946;20.140;2023-02-01T04:00:38;3.80;99.90
21445;DHT22;10883;51.946;20.140;2023-02-01T04:03:05;3.80;99.90
21445;DHT22;10883;51.946;20.140;2023-02-01T04:05:31;3.80;99.90
21445;DHT22;10883;51.946;20.140;2023-02-01T04:07:57;3.80;99.90
21445;DHT22;10883;51.946;20.140;2023-02-01T04:10:27;3.80;99.90
21445;DHT22;10883;51.946;20.140;2023-02-01T04:12:53;3.60;99.90
21445;DHT22;10883;51.946;20.140;2023-02-01T04:15:18;3.50;99.90
21445;DHT22;10883;51.946;20.140;2023-02-01T04:17:45;3.40;99.90
21445;DHT22;10883;51.946;20.140;2023-02-01T04:20:11;3.40;99.90
21445;DHT22;10883;51.946;20.140;2023-02-01T04:22:36;3.40;99.90
21445;DHT22;10883;51.946;20.140;2023-02-01T04:25:02;3.40;99.90
21445;DHT22;10883;51.946;20.140;2023-02-01T04:27:28;3.40;99.90
21445;DHT22;10883;51.946;20.140;2023-02-01T04:29:54;3.40;99.90
21445;DHT22;10883;51.946;20.140;2023-02-01T04:32:21;3.50;99.90
21445;DHT22;10883;51.946;20.140;2023-02-01T04:34:46;3.60;99.90
21445;DHT22;10883;51.946;20.140;2023-02-01T04:37:12;3.60;99.90
21445;DHT22;10883;51.946;20.140;2023-02-01T04:39:38;3.60;99.90
21445;DHT22;10883;51.946;20.140;2023-02-01T04:42:04;3.70;99.90
21445;DHT22;10883;51.946;20.140;2023-02-01T04:44:29;3.70;99.90
21445;DHT22;10883;51.946;20.140;2023-02-01T04:46:55;3.70;99.90
21445;DHT22;10883;51.946;20.140;2023-02-01T04:49:21;3.60;99.90
21445;DHT22;10883;51.946;20.140;2023-02-01T04:51:47;3.60;99.90
21445;DHT22;10883;51.946;20.140;2023-02-01T04:54:13;3.60;99.90
21445;DHT22;10883;51.946;20.140;2023-02-01T04:56:39;3.70;99.90
21445;DHT22;10883;51.946;20.140;2023-02-01T04:59:05;3.70;99.90
21445;DHT22;10883;51.946;20.140;2023-02-01T05:01:31;3.70;99.90
21445;DHT22;10883;51.946;20.140;2023-02-01T05:03:57;3.70;99.90
21445;DHT22;10883;51.946;20.140;2023-02-01T05:06:23;3.80;99.90
21445;DHT22;10883;51.946;20.140;2023-02-01T05:08:49;3.80;99.90
21445;DHT22;10883;51.946;20.140;2023-02-01T05:11:14;3.70;99.90
21445;DHT22;10883;51.946;20.140;2023-02-01T05:13:59;3.80;99.90
21445;DHT22;10883;51.946;20.140;2023-02-01T05:16:26;3.80;99.90
21445;DHT22;10883;51.946;20.140;2023-02-01T05:18:52;3.80;99.90
21445;DHT22;10883;51.946;20.140;2023-02-01T05:21:18;3.70;99.90
21445;DHT22;10883;51.946;20.140;2023-02-01T05:23:44;3.70;99.90
21445;DHT22;10883;51.946;20.140;2023-02-01T05:26:28;3.80;99.90
21445;DHT22;10883;51.946;20.140;2023-02-01T05:28:53;3.80;99.90
21445;DHT22;10883;51.946;20.140;2023-02-01T05:31:20;3.80;99.90
21445;DHT22;10883;51.946;20.140;2023-02-01T05:33:45;3.80;99.90
21445;DHT22;10883;51.946;20.140;2023-02-01T05:36:11;3.80;99.90
21445;DHT22;10883;51.946;20.140;2023-02-01T05:38:37;3.80;99.90
21445;DHT22;10883;51.946;20.140;2023-02-01T05:41:03;3.70;99.90
21445;DHT22;10883;51.946;20.140;2023-02-01T05:43:29;3.70;99.90
21445;DHT22;10883;51.946;20.140;2023-02-01T05:45:54;3.70;99.90
21445;DHT22;10883;51.946;20.140;2023-02-01T05:48:20;3.70;99.90
21445;DHT22;10883;51.946;20.140;2023-02-01T05:50:46;3.70;99.90
21445;DHT22;10883;51.946;20.140;2023-02-01T05:53:12;3.70;99.90
21445;DHT22;10883;51.946;20.140;2023-02-01T05:55:39;3.60;99.90
21445;DHT22;10883;51.946;20.140;2023-02-01T05:58:05;3.60;99.90
21445;DHT22;10883;51.946;20.140;2023-02-01T06:00:31;3.60;99.90
21445;DHT22;10883;51.946;20.140;2023-02-01T06:02:57;3.60;99.90
21445;DHT22;10883;51.946;20.140;2023-02-01T06:05:23;3.60;99.90
21445;DHT22;10883;51.946;20.140;2023-02-01T06:07:49;3.60;99.90
21445;DHT22;10883;51.946;20.140;2023-02-01T06:10:17;3.60;99.90
21445;DHT22;10883;51.946;20.140;2023-02-01T06:12:44;3.60;99.90
21445;DHT22;10883;51.946;20.140;2023-02-01T06:15:14;3.60;99.90
21445;DHT22;10883;51.946;20.140;2023-02-01T06:17:42;3.60;99.90
21445;DHT22;10883;51.946;20.140;2023-02-01T06:20:10;3.60;99.90
21445;DHT22;10883;51.946;20.140;2023-02-01T06:22:36;3.60;99.90
21445;DHT22;10883;51.946;20.140;2023-02-01T06:25:03;3.50;99.90
21445;DHT22;10883;51.946;20.140;2023-02-01T06:27:29;3.50;99.90
21445;DHT22;10883;51.946;20.140;2023-02-01T06:29:55;3.50;99.90
21445;DHT22;10883;51.946;20.140;2023-02-01T06:32:21;3.50;99.90
21445;DHT22;10883;51.946;20.140;2023-02-01T06:34:48;3.50;99.90
21445;DHT22;10883;51.946;20.140;2023-02-01T06:37:14;3.60;99.90
21445;DHT22;10883;51.946;20.140;2023-02-01T06:39:39;3.60;99.90
21445;DHT22;10883;51.946;20.140;2023-02-01T06:42:05;3.70;99.90
21445;DHT22;10883;51.946;20.140;2023-02-01T06:44:31;3.70;99.90
21445;DHT22;10883;51.946;20.140;2023-02-01T06:46:57;3.80;99.90
21445;DHT22;10883;51.946;20.140;2023-02-01T06:49:23;3.80;99.90
21445;DHT22;10883;51.946;20.140;2023-02-01T06:51:48;3.80;99.90
21445;DHT22;10883;51.946;20.140;2023-02-01T06:54:14;3.80;99.90
21445;DHT22;10883;51.946;20.140;2023-02-01T06:56:40;3.80;99.90
21445;DHT22;10883;51.946;20.140;2023-02-01T06:59:07;3.90;99.90
21445;DHT22;10883;51.946;20.140;2023-02-01T07:01:33;3.90;99.90
21445;DHT22;10883;51.946;20.140;2023-02-01T07:06:34;3.90;99.90
21445;DHT22;10883;51.946;20.140;2023-02-01T07:09:00;4.00;99.90
21445;DHT22;10883;51.946;20.140;2023-02-01T07:11:26;4.00;99.90
21445;DHT22;10883;51.946;20.140;2023-02-01T07:13:54;4.00;99.90
21445;DHT22;10883;51.946;20.140;2023-02-01T07:16:20;4.10;99.90
21445;DHT22;10883;51.946;20.140;2023-02-01T07:18:46;4.10;99.90
21445;DHT22;10883;51.946;20.140;2023-02-01T07:21:13;4.10;99.90
21445;DHT22;10883;51.946;20.140;2023-02-01T07:23:39;4.10;99.90
21445;DHT22;10883;51.946;20.140;2023-02-01T07:26:06;4.20;99.90
21445;DHT22;10883;51.946;20.140;2023-02-01T07:28:34;4.20;99.90
21445;DHT22;10883;51.946;20.140;2023-02-01T07:31:14;4.30;99.90
21445;DHT22;10883;51.946;20.140;2023-02-01T07:33:50;4.40;99.90
21445;DHT22;10883;51.946;20.140;2023-02-01T07:36:20;4.50;99.90
21445;DHT22;10883;51.946;20.140;2023-02-01T07:38:46;4.50;99.90
21445;DHT22;10883;51.946;20.140;2023-02-01T07:41:15;4.50;99.90
21445;DHT22;10883;51.946;20.140;2023-02-01T07:43:41;4.50;99.90
21445;DHT22;10883;51.946;20.140;2023-02-01T07:46:07;4.50;99.90
21445;DHT22;10883;51.946;20.140;2023-02-01T07:48:33;4.40;99.90
21445;DHT22;10883;51.946;20.140;2023-02-01T07:51:07;4.40;99.90
21445;DHT22;10883;51.946;20.140;2023-02-01T07:53:35;4.40;99.90
21445;DHT22;10883;51.946;20.140;2023-02-01T07:56:01;4.40;99.90
21445;DHT22;10883;51.946;20.140;2023-02-01T07:58:27;4.40;99.90
21445;DHT22;10883;51.946;20.140;2023-02-01T08:00:53;4.40;99.90
21445;DHT22;10883;51.946;20.140;2023-02-01T08:03:38;4.40;99.90
21445;DHT22;10883;51.946;20.140;2023-02-01T08:06:04;4.40;99.90
21445;DHT22;10883;51.946;20.140;2023-02-01T08:08:30;4.40;99.90
21445;DHT22;10883;51.946;20.140;2023-02-01T08:11:04;4.40;99.90
21445;DHT22;10883;51.946;20.140;2023-02-01T08:13:30;4.40;99.90
21445;DHT22;10883;51.946;20.140;2023-02-01T08:16:00;4.40;99.90
21445;DHT22;10883;51.946;20.140;2023-02-01T08:18:26;4.40;99.90
21445;DHT22;10883;51.946;20.140;2023-02-01T08:20:52;4.40;99.90
21445;DHT22;10883;51.946;20.140;2023-02-01T08:23:18;4.40;99.90
21445;DHT22;10883;51.946;20.140;2023-02-01T08:25:44;4.30;99.90
21445;DHT22;10883;51.946;20.140;2023-02-01T08:28:10;4.40;99.90
21445;DHT22;10883;51.946;20.140;2023-02-01T08:30:37;4.40;99.90
21445;DHT22;10883;51.946;20.140;2023-02-01T08:33:07;4.30;99.90
21445;DHT22;10883;51.946;20.140;2023-02-01T08:35:38;4.30;99.90
21445;DHT22;10883;51.946;20.140;2023-02-01T08:38:04;4.30;99.90
21445;DHT22;10883;51.946;20.140;2023-02-01T08:40:30;4.20;99.90
21445;DHT22;10883;51.946;20.140;2023-02-01T08:42:56;4.30;99.90
21445;DHT22;10883;51.946;20.140;2023-02-01T08:45:25;4.30;99.90
21445;DHT22;10883;51.946;20.140;2023-02-01T08:47:52;4.40;99.90
21445;DHT22;10883;51.946;20.140;2023-02-01T08:50:18;4.50;99.90
21445;DHT22;10883;51.946;20.140;2023-02-01T08:52:45;4.60;99.90
21445;DHT22;10883;51.946;20.140;2023-02-01T08:55:12;4.70;99.90
21445;DHT22;10883;51.946;20.140;2023-02-01T08:57:38;4.80;99.90
21445;DHT22;10883;51.946;20.140;2023-02-01T09:00:06;4.90;99.90
21445;DHT22;10883;51.946;20.140;2023-02-01T09:02:33;5.00;99.90
21445;DHT22;10883;51.946;20.140;2023-02-01T09:04:58;5.00;99.90
21445;DHT22;10883;51.946;20.140;2023-02-01T09:07:24;4.90;99.90
21445;DHT22;10883;51.946;20.140;2023-02-01T09:09:50;5.10;99.90
21445;DHT22;10883;51.946;20.140;2023-02-01T09:12:15;5.20;99.90
21445;DHT22;10883;51.946;20.140;2023-02-01T09:14:41;5.20;99.90
21445;DHT22;10883;51.946;20.140;2023-02-01T09:17:07;5.20;99.90
21445;DHT22;10883;51.946;20.140;2023-02-01T09:19:33;5.20;99.90
21445;DHT22;10883;51.946;20.140;2023-02-01T09:21:58;5.20;99.90
21445;DHT22;10883;51.946;20.140;2023-02-01T09:24:24;5.20;99.90
21445;DHT22;10883;51.946;20.140;2023-02-01T09:26:50;5.20;99.90
21445;DHT22;10883;51.946;20.140;2023-02-01T09:29:17;5.10;99.90
21445;DHT22;10883;51.946;20.140;2023-02-01T09:31:43;5.00;99.90
21445;DHT22;10883;51.946;20.140;2023-02-01T09:34:08;4.80;99.90
21445;DHT22;10883;51.946;20.140;2023-02-01T09:36:35;4.80;99.90
21445;DHT22;10883;51.946;20.140;2023-02-01T09:39:01;4.80;99.90
21445;DHT22;10883;51.946;20.140;2023-02-01T09:44:27;4.90;99.90
21445;DHT22;10883;51.946;20.140;2023-02-01T09:46:58;5.00;99.90
21445;DHT22;10883;51.946;20.140;2023-02-01T09:49:33;5.00;99.90
21445;DHT22;10883;51.946;20.140;2023-02-01T09:52:04;5.10;99.90
21445;DHT22;10883;51.946;20.140;2023-02-01T09:54:59;5.10;99.90
21445;DHT22;10883;51.946;20.140;2023-02-01T09:57:47;5.30;99.90
21445;DHT22;10883;51.946;20.140;2023-02-01T10:00:25;5.40;99.90
21445;DHT22;10883;51.946;20.140;2023-02-01T10:02:54;5.40;99.90
21445;DHT22;10883;51.946;20.140;2023-02-01T10:08:21;5.50;99.90
21445;DHT22;10883;51.946;20.140;2023-02-01T10:10:52;5.50;99.90
21445;DHT22;10883;51.946;20.140;2023-02-01T10:16:13;5.60;99.90
21445;DHT22;10883;51.946;20.140;2023-02-01T10:19:02;5.60;99.90
21445;DHT22;10883;51.946;20.140;2023-02-01T10:26:44;5.60;99.90
21445;DHT22;10883;51.946;20.140;2023-02-01T10:29:23;5.60;99.90
21445;DHT22;10883;51.946;20.140;2023-02-01T10:31:51;5.60;99.90
21445;DHT22;10883;51.946;20.140;2023-02-01T10:34:29;5.50;99.90
21445;DHT22;10883;51.946;20.140;2023-02-01T10:39:55;5.40;99.90
21445;DHT22;10883;51.946;20.140;2023-02-01T10:42:24;5.30;99.90
21445;DHT22;10883;51.946;20.140;2023-02-01T10:44:50;5.30;99.90
21445;DHT22;10883;51.946;20.140;2023-02-01T10:47:18;5.30;99.90
21445;DHT22;10883;51.946;20.140;2023-02-01T10:50:08;5.40;99.90
21445;DHT22;10883;51.946;20.140;2023-02-01T10:52:58;5.40;99.90
21445;DHT22;10883;51.946;20.140;2023-02-01T10:55:40;5.50;99.90
21445;DHT22;10883;51.946;20.140;2023-02-01T10:58:19;5.60;99.90
21445;DHT22;10883;51.946;20.140;2023-02-01T11:03:34;5.70;99.90
21445;DHT22;10883;51.946;20.140;2023-02-01T11:06:13;5.70;99.90
21445;DHT22;10883;51.946;20.140;2023-02-01T11:08:47;5.70;99.90
21445;DHT22;10883;51.946;20.140;2023-02-01T11:11:13;5.80;99.90
21445;DHT22;10883;51.946;20.140;2023-02-01T11:13:40;5.90;99.90
21445;DHT22;10883;51.946;20.140;2023-02-01T11:16:09;5.70;99.90
21445;DHT22;10883;51.946;20.140;2023-02-01T11:18:37;5.70;99.90
21445;DHT22;10883;51.946;20.140;2023-02-01T11:21:05;5.70;99.90
21445;DHT22;10883;51.946;20.140;2023-02-01T11:23:32;5.80;99.90
21445;DHT22;10883;51.946;20.140;2023-02-01T11:26:01;5.80;99.90
21445;DHT22;10883;51.946;20.140;2023-02-01T11:28:31;5.80;99.90
21445;DHT22;10883;51.946;20.140;2023-02-01T11:31:02;5.80;99.90
21445;DHT22;10883;51.946;20.140;2023-02-01T11:33:34;5.70;99.90
21445;DHT22;10883;51.946;20.140;2023-02-01T11:36:18;5.70;99.90
21445;DHT22;10883;51.946;20.140;2023-02-01T11:39:10;5.70;99.90
21445;DHT22;10883;51.946;20.140;2023-02-01T11:42:16;5.80;99.90
21445;DHT22;10883;51.946;20.140;2023-02-01T11:44:44;5.80;99.90
21445;DHT22;10883;51.946;20.140;2023-02-01T11:47:20;5.90;99.90
21445;DHT22;10883;51.946;20.140;2023-02-01T11:49:47;6.10;99.90
21445;DHT22;10883;51.946;20.140;2023-02-01T11:58:06;6.10;99.90
21445;DHT22;10883;51.946;20.140;2023-02-01T12:09:18;6.10;99.90
21445;DHT22;10883;51.946;20.140;2023-02-01T12:17:59;6.20;99.90
21445;DHT22;10883;51.946;20.140;2023-02-01T12:23:53;6.10;99.90
21445;DHT22;10883;51.946;20.140;2023-02-01T12:26:42;6.10;99.90
21445;DHT22;10883;51.946;20.140;2023-02-01T12:40:35;6.90;99.90
21445;DHT22;10883;51.946;20.140;2023-02-01T12:46:00;7.30;99.90
21445;DHT22;10883;51.946;20.140;2023-02-01T12:48:40;6.90;99.90
21445;DHT22;10883;51.946;20.140;2023-02-01T12:51:14;6.60;99.90
21445;DHT22;10883;51.946;20.140;2023-02-01T12:56:55;6.70;99.90
21445;DHT22;10883;51.946;20.140;2023-02-01T12:59:40;7.40;99.90
21445;DHT22;10883;51.946;20.140;2023-02-01T13:07:50;11.40;99.90
21445;DHT22;10883;51.946;20.140;2023-02-01T13:12:59;9.80;99.90
21445;DHT22;10883;51.946;20.140;2023-02-01T13:15:31;9.40;99.90
21445;DHT22;10883;51.946;20.140;2023-02-01T13:18:02;8.80;99.90
21445;DHT22;10883;51.946;20.140;2023-02-01T13:20:53;7.80;99.90
21445;DHT22;10883;51.946;20.140;2023-02-01T13:23:34;7.10;99.90
21445;DHT22;10883;51.946;20.140;2023-02-01T13:26:00;6.70;99.90
21445;DHT22;10883;51.946;20.140;2023-02-01T13:37:23;6.00;99.90
21445;DHT22;10883;51.946;20.140;2023-02-01T13:43:19;5.80;99.90
21445;DHT22;10883;51.946;20.140;2023-02-01T13:45:52;5.80;99.90
21445;DHT22;10883;51.946;20.140;2023-02-01T13:51:06;5.70;99.90
21445;DHT22;10883;51.946;20.140;2023-02-01T13:53:34;5.60;99.90
21445;DHT22;10883;51.946;20.140;2023-02-01T13:56:11;5.60;99.90
21445;DHT22;10883;51.946;20.140;2023-02-01T13:58:40;5.60;99.90
21445;DHT22;10883;51.946;20.140;2023-02-01T14:04:00;5.50;99.90
21445;DHT22;10883;51.946;20.140;2023-02-01T14:11:43;5.40;99.90
21445;DHT22;10883;51.946;20.140;2023-02-01T14:19:36;5.50;99.90
21445;DHT22;10883;51.946;20.140;2023-02-01T14:24:56;5.50;99.90
21445;DHT22;10883;51.946;20.140;2023-02-01T14:27:26;5.40;99.90
21445;DHT22;10883;51.946;20.140;2023-02-01T14:29:59;5.40;99.90
21445;DHT22;10883;51.946;20.140;2023-02-01T14:32:40;5.40;99.90
21445;DHT22;10883;51.946;20.140;2023-02-01T14:35:16;5.40;99.90
21445;DHT22;10883;51.946;20.140;2023-02-01T14:37:44;5.40;99.90
21445;DHT22;10883;51.946;20.140;2023-02-01T14:55:40;5.10;99.90
21445;DHT22;10883;51.946;20.140;2023-02-01T14:58:18;5.10;99.90
21445;DHT22;10883;51.946;20.140;2023-02-01T15:00:51;5.00;99.90
21445;DHT22;10883;51.946;20.140;2023-02-01T15:08:46;4.90;99.90
21445;DHT22;10883;51.946;20.140;2023-02-01T15:11:15;4.70;99.90
21445;DHT22;10883;51.946;20.140;2023-02-01T15:13:51;4.60;99.90
21445;DHT22;10883;51.946;20.140;2023-02-01T15:16:20;4.60;99.90
21445;DHT22;10883;51.946;20.140;2023-02-01T15:18:48;4.50;99.90
21445;DHT22;10883;51.946;20.140;2023-02-01T15:21:20;4.40;99.90
21445;DHT22;10883;51.946;20.140;2023-02-01T15:23:46;4.40;99.90
21445;DHT22;10883;51.946;20.140;2023-02-01T15:26:27;4.40;99.90
21445;DHT22;10883;51.946;20.140;2023-02-01T15:28:53;4.40;99.90
21445;DHT22;10883;51.946;20.140;2023-02-01T15:31:35;4.40;99.90
21445;DHT22;10883;51.946;20.140;2023-02-01T15:34:01;4.40;99.90
21445;DHT22;10883;51.946;20.140;2023-02-01T15:36:27;4.30;99.90
21445;DHT22;10883;51.946;20.140;2023-02-01T15:39:22;4.30;99.90
21445;DHT22;10883;51.946;20.140;2023-02-01T15:41:55;4.30;99.90
21445;DHT22;10883;51.946;20.140;2023-02-01T15:46:56;4.40;99.90
21445;DHT22;10883;51.946;20.140;2023-02-01T15:49:30;4.40;99.90
21445;DHT22;10883;51.946;20.140;2023-02-01T15:52:00;4.40;99.90
21445;DHT22;10883;51.946;20.140;2023-02-01T15:54:43;4.40;99.90
21445;DHT22;10883;51.946;20.140;2023-02-01T15:57:11;4.40;99.90
21445;DHT22;10883;51.946;20.140;2023-02-01T15:59:44;4.50;99.90
21445;DHT22;10883;51.946;20.140;2023-02-01T16:02:35;4.50;99.90
21445;DHT22;10883;51.946;20.140;2023-02-01T16:05:04;4.50;99.90
21445;DHT22;10883;51.946;20.140;2023-02-01T16:07:32;4.40;99.90
21445;DHT22;10883;51.946;20.140;2023-02-01T16:10:01;4.40;99.90
21445;DHT22;10883;51.946;20.140;2023-02-01T16:15:04;4.40;99.90
21445;DHT22;10883;51.946;20.140;2023-02-01T16:17:31;4.40;99.90
21445;DHT22;10883;51.946;20.140;2023-02-01T16:19:56;4.30;99.90
21445;DHT22;10883;51.946;20.140;2023-02-01T16:22:23;4.30;99.90
21445;DHT22;10883;51.946;20.140;2023-02-01T16:24:49;4.30;99.90
21445;DHT22;10883;51.946;20.140;2023-02-01T16:27:15;4.30;99.90
21445;DHT22;10883;51.946;20.140;2023-02-01T16:29:41;4.30;99.90
21445;DHT22;10883;51.946;20.140;2023-02-01T16:32:14;4.30;99.90
21445;DHT22;10883;51.946;20.140;2023-02-01T16:34:41;4.30;99.90
21445;DHT22;10883;51.946;20.140;2023-02-01T16:37:13;4.30;99.90
21445;DHT22;10883;51.946;20.140;2023-02-01T16:39:39;4.30;99.90
21445;DHT22;10883;51.946;20.140;2023-02-01T16:42:12;4.30;99.90
21445;DHT22;10883;51.946;20.140;2023-02-01T16:44:39;4.30;99.90
21445;DHT22;10883;51.946;20.140;2023-02-01T16:47:20;4.20;99.90
21445;DHT22;10883;51.946;20.140;2023-02-01T16:49:47;4.20;99.90
21445;DHT22;10883;51.946;20.140;2023-02-01T16:52:18;4.20;99.90
21445;DHT22;10883;51.946;20.140;2023-02-01T16:54:45;4.20;99.90
21445;DHT22;10883;51.946;20.140;2023-02-01T16:57:15;4.30;99.90
21445;DHT22;10883;51.946;20.140;2023-02-01T16:59:42;4.30;99.90
21445;DHT22;10883;51.946;20.140;2023-02-01T17:02:16;4.30;99.90
21445;DHT22;10883;51.946;20.140;2023-02-01T17:04:45;4.30;99.90
21445;DHT22;10883;51.946;20.140;2023-02-01T17:07:15;4.30;99.90
21445;DHT22;10883;51.946;20.140;2023-02-01T17:09:42;4.30;99.90
21445;DHT22;10883;51.946;20.140;2023-02-01T17:12:27;4.30;99.90
21445;DHT22;10883;51.946;20.140;2023-02-01T17:14:53;4.30;99.90
21445;DHT22;10883;51.946;20.140;2023-02-01T17:17:20;4.40;99.90
21445;DHT22;10883;51.946;20.140;2023-02-01T17:19:49;4.40;99.90
21445;DHT22;10883;51.946;20.140;2023-02-01T17:22:18;4.40;99.90
21445;DHT22;10883;51.946;20.140;2023-02-01T17:24:44;4.30;99.90
21445;DHT22;10883;51.946;20.140;2023-02-01T17:27:10;4.30;99.90
21445;DHT22;10883;51.946;20.140;2023-02-01T17:29:36;4.20;99.90
21445;DHT22;10883;51.946;20.140;2023-02-01T17:32:02;4.20;99.90
21445;DHT22;10883;51.946;20.140;2023-02-01T17:34:28;4.20;99.90
21445;DHT22;10883;51.946;20.140;2023-02-01T17:36:54;4.20;99.90
21445;DHT22;10883;51.946;20.140;2023-02-01T17:39:20;4.20;99.90
21445;DHT22;10883;51.946;20.140;2023-02-01T17:42:05;4.20;99.90
21445;DHT22;10883;51.946;20.140;2023-02-01T17:44:31;4.20;99.90
21445;DHT22;10883;51.946;20.140;2023-02-01T17:46:57;4.10;99.90
21445;DHT22;10883;51.946;20.140;2023-02-01T17:49:24;4.00;99.90
21445;DHT22;10883;51.946;20.140;2023-02-01T17:51:51;4.00;99.90
21445;DHT22;10883;51.946;20.140;2023-02-01T17:54:17;4.00;99.90
21445;DHT22;10883;51.946;20.140;2023-02-01T17:56:45;4.00;99.90
21445;DHT22;10883;51.946;20.140;2023-02-01T17:59:13;4.10;99.90
21445;DHT22;10883;51.946;20.140;2023-02-01T18:01:40;4.10;99.90
21445;DHT22;10883;51.946;20.140;2023-02-01T18:04:10;4.10;99.90
21445;DHT22;10883;51.946;20.140;2023-02-01T18:06:36;4.10;99.90
21445;DHT22;10883;51.946;20.140;2023-02-01T18:09:02;4.10;99.90
21445;DHT22;10883;51.946;20.140;2023-02-01T18:11:28;4.10;99.90
21445;DHT22;10883;51.946;20.140;2023-02-01T18:13:57;4.10;99.90
21445;DHT22;10883;51.946;20.140;2023-02-01T18:16:25;4.10;99.90
21445;DHT22;10883;51.946;20.140;2023-02-01T18:18:51;4.10;99.90
21445;DHT22;10883;51.946;20.140;2023-02-01T18:21:18;4.10;99.90
21445;DHT22;10883;51.946;20.140;2023-02-01T18:24:06;4.00;99.90